Time;durP1;ratioP1;P1;durP2;ratioP2;P2;SDS_P1;SDS_P2;PMS_P1;PMS_P2;Temp;Humidity;BMP_temperature;BMP_pressure;BME280_temperature;BME280_humidity;BME280_pressure;Samples;Min_cycle;Max_cycle;Signal;HPM_P1;HPM_P2
2021/12/05 00:22:05;;;;;;;48.45;21.68;;;;;;;-4.08;100.00;98888.65;1633793;86;21118;-70
2021/12/05 00:24:07;;;;;;;47.30;21.52;;;;;;;-4.09;100.00;98891.56;1626509;86;21195;-70
2021/12/05 00:26:35;;;;;;;41.00;20.32;;;;;;;-4.10;100.00;98901.47;1636028;86;21009;-70
2021/12/05 00:32:05;;;;;;;54.88;20.85;;;;;;;-4.13;100.00;98900.60;1629234;86;21063;-71
2021/12/05 00:48:18;;;;;;;52.65;24.80;;;;;;;-4.25;100.00;98917.23;1634225;86;20976;-70
2021/12/05 00:53:41;;;;;;;51.30;23.02;;;;;;;-4.29;100.00;98927.31;1603510;88;21020;-71
2021/12/05 00:55:59;;;;;;;49.33;21.40;;;;;;;-4.33;100.00;98926.97;1620591;87;21037;-72
2021/12/05 01:16:46;;;;;;;46.80;21.80;;;;;;;-4.64;100.00;98923.33;1628301;87;22372;-70
2021/12/05 01:19:16;;;;;;;46.08;21.15;;;;;;;-4.65;100.00;98919.83;1617302;87;21112;-70
2021/12/05 01:21:48;;;;;;;48.52;22.15;;;;;;;-4.63;100.00;98924.44;1630299;87;20964;-70
2021/12/05 01:24:46;;;;;;;47.95;19.90;;;;;;;-4.63;100.00;98924.44;1607743;87;21080;-70
2021/12/05 01:35:11;;;;;;;40.85;20.00;;;;;;;-4.72;100.00;98925.30;1632249;86;21016;-70
2021/12/05 01:38:01;;;;;;;42.23;19.10;;;;;;;-4.75;100.00;98924.95;1618610;87;21171;-70
2021/12/05 01:48:49;;;;;;;44.45;19.40;;;;;;;-4.80;100.00;98923.48;1607820;87;21082;-70
2021/12/05 01:51:05;;;;;;;34.43;16.42;;;;;;;-4.81;100.00;98917.84;1605377;87;21016;-71
2021/12/05 02:01:21;;;;;;;44.18;19.23;;;;;;;-4.91;100.00;98906.36;1615928;87;21046;-70
2021/12/05 02:12:06;;;;;;;44.95;20.45;;;;;;;-4.92;100.00;98894.55;1606931;87;21289;-70
2021/12/05 02:41:34;;;;;;;44.48;18.20;;;;;;;-5.00;100.00;98893.84;1636002;87;21005;-69
2021/12/05 02:44:01;;;;;;;40.83;17.52;;;;;;;-5.01;100.00;98884.17;1629115;86;20970;-70
2021/12/05 02:46:26;;;;;;;44.85;20.77;;;;;;;-5.03;100.00;98884.11;1608007;87;21015;-70
2021/12/05 02:48:57;;;;;;;41.95;19.55;;;;;;;-5.07;100.00;98882.95;1618857;87;21098;-70
2021/12/05 02:51:25;;;;;;;44.35;19.02;;;;;;;-5.12;100.00;98882.30;1629165;87;21613;-70
2021/12/05 02:56:33;;;;;;;40.78;19.65;;;;;;;-5.14;100.00;98874.20;1621652;87;21446;-70
2021/12/05 02:59:17;;;;;;;42.38;20.85;;;;;;;-5.15;100.00;98873.91;1605090;86;21073;-69
2021/12/05 03:01:43;;;;;;;38.75;18.23;;;;;;;-5.14;100.00;98868.85;1611104;87;21260;-69
2021/12/05 03:04:08;;;;;;;43.28;19.48;;;;;;;-5.16;100.00;98852.21;1622217;87;20925;-70
2021/12/05 03:06:49;;;;;;;44.42;21.20;;;;;;;-5.17;100.00;98843.89;1629542;87;20966;-69
2021/12/05 03:09:13;;;;;;;42.17;20.08;;;;;;;-5.16;100.00;98849.02;1631125;87;21586;-69
2021/12/05 03:11:42;;;;;;;46.70;20.70;;;;;;;-5.14;100.00;98852.27;1628892;87;20968;-69
2021/12/05 03:14:09;;;;;;;35.80;17.87;;;;;;;-5.14;100.00;98840.23;1629933;87;21179;-69
2021/12/05 03:16:37;;;;;;;43.08;19.60;;;;;;;-5.11;100.00;98849.66;1624505;87;21040;-69
2021/12/05 03:19:06;;;;;;;43.80;20.60;;;;;;;-5.10;100.00;98838.72;1605663;88;21051;-69
2021/12/05 03:21:35;;;;;;;47.40;20.68;;;;;;;-5.09;100.00;98831.51;1627067;85;20995;-69
2021/12/05 03:24:03;;;;;;;42.05;19.90;;;;;;;-5.08;100.00;98835.81;1676397;85;20983;-69
2021/12/05 03:26:35;;;;;;;42.83;19.90;;;;;;;-5.07;100.00;98834.77;1674733;85;21838;-70
2021/12/05 03:29:03;;;;;;;47.50;21.47;;;;;;;-5.07;100.00;98824.06;1639819;86;20975;-70
2021/12/05 03:31:31;;;;;;;45.55;20.97;;;;;;;-5.06;100.00;98829.70;1612725;87;21574;-71
2021/12/05 03:34:02;;;;;;;45.63;20.68;;;;;;;-5.05;100.00;98833.48;1653006;85;21102;-70
2021/12/05 03:36:29;;;;;;;43.25;19.05;;;;;;;-5.06;100.00;98826.50;1666324;85;20873;-70
2021/12/05 03:38:56;;;;;;;41.70;20.00;;;;;;;-5.06;100.00;98826.50;1665406;85;21811;-71
2021/12/05 03:41:25;;;;;;;48.55;20.95;;;;;;;-5.09;100.00;98830.17;1661071;85;21082;-71
2021/12/05 03:43:55;;;;;;;37.30;18.37;;;;;;;-5.13;100.00;98825.80;1657755;85;21453;-70
2021/12/05 03:46:24;;;;;;;41.92;19.65;;;;;;;-5.15;100.00;98836.45;1675380;85;21496;-70
2021/12/05 03:48:59;;;;;;;39.65;19.02;;;;;;;-5.19;100.00;98841.45;1663194;85;21006;-71
2021/12/05 03:51:31;;;;;;;44.85;20.05;;;;;;;-5.23;100.00;98851.53;1620909;85;39615;-72
2021/12/05 03:53:58;;;;;;;39.25;18.67;;;;;;;-5.29;100.00;98859.14;1664663;85;20936;-72
2021/12/05 03:56:25;;;;;;;41.63;20.05;;;;;;;-5.33;100.00;98851.58;1658201;85;20954;-70
2021/12/05 03:58:52;;;;;;;37.05;17.05;;;;;;;-5.35;100.00;98858.20;1668681;85;20999;-71
2021/12/05 04:01:20;;;;;;;44.45;19.10;;;;;;;-5.38;100.00;98858.13;1676015;83;20949;-70
2021/12/05 04:03:48;;;;;;;38.58;19.42;;;;;;;-5.41;100.00;98849.23;1662795;84;21417;-71
2021/12/05 04:06:17;;;;;;;41.13;18.85;;;;;;;-5.41;100.00;98850.56;1668037;85;21001;-70
2021/12/05 04:08:46;;;;;;;38.85;19.32;;;;;;;-5.43;100.00;98847.30;1652589;85;21057;-70
2021/12/05 04:11:18;;;;;;;41.42;18.48;;;;;;;-5.43;100.00;98851.31;1674556;85;21027;-70
2021/12/05 04:13:49;;;;;;;39.20;19.05;;;;;;;-5.45;100.00;98848.06;1673432;85;20997;-71
2021/12/05 04:16:18;;;;;;;39.00;18.80;;;;;;;-5.46;100.00;98845.09;1661377;85;21417;-70
2021/12/05 04:18:46;;;;;;;44.80;20.95;;;;;;;-5.47;100.00;98840.78;1655567;85;20997;-70
2021/12/05 04:21:16;;;;;;;46.28;20.25;;;;;;;-5.49;100.00;98845.55;1660925;84;21171;-70
2021/12/05 04:23:44;;;;;;;38.88;18.87;;;;;;;-5.50;100.00;98850.60;1659570;85;21139;-70
2021/12/05 04:26:14;;;;;;;46.63;21.07;;;;;;;-5.51;100.00;98855.66;1663492;85;21437;-70
2021/12/05 04:28:43;;;;;;;49.90;21.97;;;;;;;-5.53;100.00;98866.29;1655664;85;21161;-70
2021/12/05 04:31:10;;;;;;;38.60;19.00;;;;;;;-5.53;100.00;98871.12;1658143;85;21007;-70
2021/12/05 04:33:39;;;;;;;37.83;17.42;;;;;;;-5.53;100.00;98873.80;1671732;85;20925;-70
2021/12/05 04:36:07;;;;;;;41.42;18.77;;;;;;;-5.54;100.00;98868.67;1633129;86;21038;-70
2021/12/05 04:38:36;;;;;;;41.37;18.82;;;;;;;-5.55;100.00;98875.06;1664786;85;21497;-70
2021/12/05 04:41:03;;;;;;;48.23;21.73;;;;;;;-5.55;100.00;98879.08;1662887;85;21125;-69
2021/12/05 04:43:37;;;;;;;47.43;20.20;;;;;;;-5.54;100.00;98874.84;1650412;85;21602;-70
2021/12/05 04:46:09;;;;;;;40.78;19.32;;;;;;;-5.52;100.00;98874.09;1656755;85;21077;-70
2021/12/05 04:48:37;;;;;;;46.88;20.62;;;;;;;-5.51;100.00;98874.38;1660691;85;21001;-70
2021/12/05 04:51:05;;;;;;;46.95;19.27;;;;;;;-5.49;100.00;98860.78;1655708;85;21048;-70
2021/12/05 04:53:34;;;;;;;36.25;17.35;;;;;;;-5.47;100.00;98861.37;1656113;85;21516;-70
2021/12/05 04:56:01;;;;;;;49.60;22.58;;;;;;;-5.47;100.00;98864.04;1656842;85;21049;-70
2021/12/05 04:58:27;;;;;;;47.83;22.77;;;;;;;-5.45;100.00;98861.95;1663145;85;21083;-70
2021/12/05 05:00:57;;;;;;;40.58;20.17;;;;;;;-5.41;100.00;98853.24;1647361;85;21101;-70
2021/12/05 05:03:26;;;;;;;50.33;23.85;;;;;;;-5.39;100.00;98851.67;1653708;85;21054;-70
2021/12/05 05:06:03;;;;;;;49.90;20.68;;;;;;;-5.38;100.00;98851.97;1659685;85;21970;-70
2021/12/05 05:08:25;;;;;;;43.45;20.45;;;;;;;-5.40;100.00;98843.36;1652334;84;21131;-70
2021/12/05 05:10:51;;;;;;;38.33;20.57;;;;;;;-5.44;100.00;98836.31;1659645;85;21405;-70
2021/12/05 05:13:17;;;;;;;37.38;18.42;;;;;;;-5.46;100.00;98848.28;1662635;85;21004;-70
2021/12/05 05:15:44;;;;;;;45.10;20.85;;;;;;;-5.46;100.00;98849.63;1655688;85;21017;-70
2021/12/05 05:18:12;;;;;;;38.10;19.00;;;;;;;-5.47;100.00;98857.36;1655402;85;21736;-69
2021/12/05 05:20:52;;;;;;;42.83;19.40;;;;;;;-5.49;100.00;98868.80;1657070;85;20858;-70
2021/12/05 05:26:16;;;;;;;37.78;16.73;;;;;;;-5.53;100.00;98863.09;1648921;85;21287;-70
2021/12/05 05:28:36;;;;;;;38.70;17.87;;;;;;;-5.53;100.00;98867.63;1664810;85;28394;-69
2021/12/05 05:30:52;;;;;;;41.42;18.95;;;;;;;-5.56;100.00;98865.41;1667647;84;23193;-70
2021/12/05 05:47:11;;;;;;;36.08;17.52;;;;;;;-5.62;100.00;98860.97;1649062;84;20988;-69
2021/12/05 05:49:46;;;;;;;41.33;18.37;;;;;;;-5.61;100.00;98874.11;1660045;85;21068;-71
2021/12/05 05:52:03;;;;;;;38.92;16.95;;;;;;;-5.61;100.00;98878.64;1642403;86;21079;-71
2021/12/05 05:54:30;;;;;;;38.95;17.92;;;;;;;-5.62;100.00;98886.38;1642098;86;21438;-74
2021/12/05 05:57:08;;;;;;;38.90;18.80;;;;;;;-5.61;100.00;98889.34;1641128;86;21060;-72
2021/12/05 05:59:32;;;;;;;33.40;18.35;;;;;;;-5.61;100.00;98892.02;1627863;86;21706;-69
2021/12/05 06:04:36;;;;;;;43.25;19.17;;;;;;;-5.59;100.00;98891.27;1629776;86;21067;-71
2021/12/05 06:07:03;;;;;;;41.70;18.98;;;;;;;-5.54;100.00;98893.55;1626211;85;21016;-70
2021/12/05 06:09:32;;;;;;;40.23;18.23;;;;;;;-5.52;100.00;98889.31;1615668;86;21122;-72
2021/12/05 06:11:58;;;;;;;43.13;17.42;;;;;;;-5.49;100.00;98894.21;1615326;86;20981;-73
2021/12/05 06:14:28;;;;;;;41.30;18.02;;;;;;;-5.49;100.00;98895.55;1611644;86;21035;-74
2021/12/05 06:16:56;;;;;;;40.78;18.95;;;;;;;-5.48;100.00;98897.18;1618235;86;21000;-74
2021/12/05 06:19:22;;;;;;;42.33;17.95;;;;;;;-5.48;100.00;98898.00;1624718;86;21086;-70
2021/12/05 06:21:49;;;;;;;36.48;16.67;;;;;;;-5.46;100.00;98895.91;1610975;86;22169;-70
2021/12/05 06:24:23;;;;;;;39.92;17.67;;;;;;;-5.43;100.00;98895.45;1626960;86;21240;-71
2021/12/05 06:26:50;;;;;;;38.63;17.48;;;;;;;-5.39;100.00;98901.98;1621765;86;21039;-70
2021/12/05 06:29:20;;;;;;;41.42;18.77;;;;;;;-5.36;100.00;98896.17;1625143;86;21032;-69
2021/12/05 06:37:24;;;;;;;48.52;21.12;;;;;;;-5.04;100.00;98906.58;1605384;88;20961;-71
2021/12/05 06:39:59;;;;;;;47.45;21.68;;;;;;;-4.83;100.00;98909.22;1605189;87;21083;-75
2021/12/05 06:47:32;;;;;;;42.93;18.52;;;;;;;-3.95;100.00;98920.23;1600869;88;21514;-72
2021/12/05 06:50:00;;;;;;;44.50;23.20;;;;;;;-3.56;100.00;98918.08;1593083;88;20916;-72
2021/12/05 06:52:26;;;;;;;41.70;22.90;;;;;;;-3.24;100.00;98922.41;1606125;88;21483;-72
2021/12/05 06:54:53;;;;;;;43.70;22.50;;;;;;;-3.01;99.11;98923.63;1601541;88;21035;-73
2021/12/05 06:57:19;;;;;;;34.90;20.23;;;;;;;-2.72;98.78;98925.69;1618834;88;21019;-70
2021/12/05 06:59:48;;;;;;;40.85;21.62;;;;;;;-2.45;97.81;98927.70;1612303;87;21111;-70
2021/12/05 07:02:18;;;;;;;42.62;20.45;;;;;;;-2.27;95.29;98932.78;1613494;87;20961;-70
2021/12/05 07:05:11;;;;;;;39.08;19.67;;;;;;;-2.21;94.64;98930.45;1634859;85;21568;-70
2021/12/05 07:07:26;;;;;;;38.73;20.20;;;;;;;-2.20;92.82;98930.73;1679873;83;21565;-70
2021/12/05 07:09:52;;;;;;;39.00;20.32;;;;;;;-2.23;92.93;98931.23;1690545;84;21498;-70
2021/12/05 07:14:51;;;;;;;41.95;19.90;;;;;;;-2.34;91.72;98932.98;1688852;83;21185;-73
2021/12/05 07:20:35;;;;;;;42.27;19.87;;;;;;;-2.15;92.04;98925.96;1679958;83;21116;-73
2021/12/05 07:23:23;;;;;;;37.50;17.05;;;;;;;-1.95;91.44;98930.80;1662167;85;21044;-72
2021/12/05 07:25:14;;;;;;;38.23;17.67;;;;;;;-1.65;90.51;98923.08;1625869;85;21577;-73
2021/12/05 07:41:53;;;;;;;40.15;23.10;;;;;;;-0.57;84.99;98945.38;1665267;84;21291;-77
2021/12/05 07:44:21;;;;;;;40.30;22.58;;;;;;;-0.39;84.46;98943.63;1621996;86;21078;-73
2021/12/05 07:46:52;;;;;;;40.10;19.70;;;;;;;-0.12;82.82;98943.55;1633691;85;21509;-76
2021/12/05 07:49:21;;;;;;;35.73;19.17;;;;;;;-0.04;81.42;98940.36;1622144;87;21091;-80
2021/12/05 07:51:49;;;;;;;35.05;18.37;;;;;;;0.05;80.59;98946.58;1661719;84;21520;-76
2021/12/05 07:54:39;;;;;;;32.28;18.05;;;;;;;0.16;80.64;98942.86;1644675;84;21034;-77
2021/12/05 08:16:26;;;;;;;32.05;17.15;;;;;;;0.03;76.85;98937.39;1591317;88;21758;-75
2021/12/05 08:18:57;;;;;;;35.68;16.80;;;;;;;-0.05;77.47;98935.22;1633229;85;21577;-75
2021/12/05 08:21:25;;;;;;;34.43;16.82;;;;;;;0.04;78.97;98932.81;1630309;86;21024;-77
2021/12/05 08:23:54;;;;;;;35.03;17.27;;;;;;;0.21;78.26;98928.85;1652647;85;21646;-77
2021/12/05 08:26:30;;;;;;;41.60;19.45;;;;;;;0.34;77.13;98926.21;1655567;84;21576;-76
2021/12/05 09:21:56;;;;;;;40.33;20.70;;;;;;;1.61;69.48;98922.30;1664003;83;21058;-70
2021/12/05 09:51:58;;;;;;;48.52;27.80;;;;;;;1.82;68.04;98933.34;1657759;84;21150;-72
2021/12/05 10:07:36;;;;;;;48.65;25.62;;;;;;;1.59;66.71;98943.41;1663048;85;21135;-75
2021/12/05 10:38:09;;;;;;;49.50;25.02;;;;;;;-0.01;73.63;98939.83;1664124;85;21009;-77
2021/12/05 10:40:55;;;;;;;49.83;26.10;;;;;;;-0.13;74.20;98939.22;1657551;85;21183;-76
2021/12/05 10:43:20;;;;;;;51.18;25.95;;;;;;;-0.19;74.92;98934.87;1654717;85;21059;-78
2021/12/05 10:45:54;;;;;;;48.68;25.02;;;;;;;-0.20;75.37;98933.78;1657603;85;21129;-74
2021/12/05 10:48:28;;;;;;;55.92;26.60;;;;;;;-0.26;75.67;98932.93;1659114;84;21171;-76
2021/12/05 10:51:03;;;;;;;46.25;25.25;;;;;;;-0.40;75.43;98929.88;1646233;85;21178;-75
2021/12/05 10:53:50;;;;;;;50.03;23.85;;;;;;;-0.52;76.05;98927.08;1662841;84;21151;-74
2021/12/05 10:56:32;;;;;;;47.27;24.60;;;;;;;-0.57;76.79;98921.65;1659780;85;21076;-81
2021/12/05 10:59:07;;;;;;;57.48;24.75;;;;;;;-0.61;77.31;98915.18;1657326;85;21076;-76
2021/12/05 11:01:55;;;;;;;54.25;27.13;;;;;;;-0.64;77.69;98904.37;1657718;85;21241;-78
2021/12/05 11:04:26;;;;;;;55.40;25.27;;;;;;;-0.63;78.25;98903.84;1656656;85;20971;-80
2021/12/05 11:07:03;;;;;;;48.05;23.73;;;;;;;-0.59;78.75;98902.25;1664166;84;21023;-76
2021/12/05 11:09:46;;;;;;;52.23;25.17;;;;;;;-0.63;78.00;98893.88;1676339;84;21501;-74
2021/12/05 11:12:31;;;;;;;50.03;25.68;;;;;;;-0.64;78.69;98894.13;1661698;85;21076;-75
2021/12/05 11:15:06;;;;;;;47.45;24.98;;;;;;;-0.57;78.49;98893.34;1671372;84;21710;-75
2021/12/05 11:17:39;;;;;;;54.08;24.98;;;;;;;-0.63;78.26;98899.27;1676717;84;20983;-75
2021/12/05 11:20:29;;;;;;;52.43;26.17;;;;;;;-0.59;78.64;98908.46;1657513;85;21467;-75
2021/12/05 11:22:56;;;;;;;46.70;24.43;;;;;;;-0.43;79.07;98909.35;1667872;85;21028;-78
2021/12/05 11:25:28;;;;;;;55.48;25.80;;;;;;;-0.11;79.50;98909.28;1674843;85;21504;-78
2021/12/05 11:28:04;;;;;;;47.20;24.67;;;;;;;0.18;77.97;98905.09;1656188;85;21845;-78
2021/12/05 11:30:34;;;;;;;55.33;25.88;;;;;;;0.20;76.74;98908.33;1660389;84;21071;-79
2021/12/05 11:33:19;;;;;;;49.03;23.67;;;;;;;0.11;77.56;98913.95;1676245;84;21151;-78
2021/12/05 11:35:55;;;;;;;51.28;25.35;;;;;;;0.06;77.94;98906.38;1676098;84;20957;-79
2021/12/05 11:38:36;;;;;;;56.08;26.42;;;;;;;0.02;78.34;98908.78;1671910;84;21003;-77
2021/12/05 11:41:15;;;;;;;50.98;26.68;;;;;;;-0.06;78.75;98895.82;1657847;85;21430;-79
2021/12/05 11:43:47;;;;;;;50.15;25.12;;;;;;;-0.17;78.80;98900.34;1658183;85;21025;-79
2021/12/05 11:46:34;;;;;;;56.10;25.85;;;;;;;-0.31;79.18;98903.23;1638120;86;21051;-79
2021/12/05 11:49:13;;;;;;;52.08;24.95;;;;;;;-0.48;79.53;98901.23;1659690;85;21004;-78
2021/12/05 11:51:55;;;;;;;48.35;25.77;;;;;;;-0.63;80.26;98898.45;1664031;85;21424;-80
2021/12/05 11:54:39;;;;;;;49.60;25.15;;;;;;;-0.74;80.88;98893.52;1660483;84;21166;-77
2021/12/05 11:57:22;;;;;;;65.62;24.63;;;;;;;-0.79;81.13;98896.17;1657774;85;21617;-79
2021/12/05 12:00:02;;;;;;;51.70;23.85;;;;;;;-0.80;81.88;98898.05;1656509;85;21025;-79
2021/12/05 12:02:35;;;;;;;46.83;21.75;;;;;;;-0.75;81.38;98891.35;1655656;85;20996;-81
2021/12/05 12:05:13;;;;;;;50.73;24.43;;;;;;;-0.74;80.51;98901.60;1660122;85;21690;-79
2021/12/05 12:08:02;;;;;;;48.00;23.65;;;;;;;-0.77;80.14;98897.54;1675626;84;21595;-81
2021/12/05 12:10:41;;;;;;;51.35;24.00;;;;;;;-0.82;80.24;98906.92;1655844;84;21413;-80
2021/12/05 12:13:18;;;;;;;50.15;25.37;;;;;;;-0.85;81.10;98908.79;1676437;83;21072;-79
2021/12/05 12:15:58;;;;;;;54.08;24.57;;;;;;;-0.90;82.43;98912.78;1661931;84;21053;-80
2021/12/05 12:18:27;;;;;;;51.05;24.57;;;;;;;-0.94;83.15;98917.06;1660546;85;21170;-78
2021/12/05 12:20:54;;;;;;;48.38;25.30;;;;;;;-1.04;83.69;98911.58;1651785;84;21544;-86
2021/12/05 12:23:27;;;;;;;49.48;24.85;;;;;;;-1.14;84.10;98912.83;1652084;85;21043;-83
2021/12/05 12:25:58;;;;;;;53.13;26.73;;;;;;;-1.21;84.73;98908.22;1639023;85;21008;-82
2021/12/05 12:28:29;;;;;;;50.65;25.97;;;;;;;-1.25;85.52;98900.36;1665310;85;21527;-79
2021/12/05 12:31:07;;;;;;;61.23;29.10;;;;;;;-1.27;85.58;98906.53;1658249;85;21060;-78
2021/12/05 12:33:47;;;;;;;72.20;32.98;;;;;;;-1.29;85.79;98908.67;1650046;85;21513;-80
2021/12/05 12:36:18;;;;;;;56.77;25.75;;;;;;;-1.29;86.27;98908.67;1645887;85;21014;-80
2021/12/05 12:38:46;;;;;;;51.83;25.30;;;;;;;-1.32;86.04;98902.45;1659961;84;21029;-72
2021/12/05 12:41:30;;;;;;;50.83;22.82;;;;;;;-1.35;86.23;98910.50;1658540;84;20979;-76
2021/12/05 12:44:07;;;;;;;46.23;21.70;;;;;;;-1.39;85.90;98904.80;1663244;83;21139;-72
2021/12/05 12:46:48;;;;;;;45.25;21.90;;;;;;;-1.43;84.70;98900.18;1657389;85;21148;-73
2021/12/05 12:49:20;;;;;;;51.10;23.38;;;;;;;-1.51;84.12;98903.32;1656368;85;21097;-74
2021/12/05 12:51:56;;;;;;;53.30;23.70;;;;;;;-1.56;84.18;98906.77;1660317;85;21231;-69
2021/12/05 12:54:30;;;;;;;47.83;22.42;;;;;;;-1.60;84.63;98906.99;1657925;85;20998;-73
2021/12/05 12:57:05;;;;;;;58.13;27.17;;;;;;;-1.63;85.02;98910.19;1665149;84;20859;-80
2021/12/05 12:59:36;;;;;;;51.42;23.75;;;;;;;-1.65;85.66;98913.66;1664030;85;21176;-74
2021/12/05 13:05:03;;;;;;;90.50;38.13;;;;;;;-1.70;87.29;98911.72;1643663;86;21015;-87
2021/12/05 13:10:29;;;;;;;62.88;27.13;;;;;;;-1.75;87.60;98918.95;1674247;85;21068;-73
2021/12/05 13:13:03;;;;;;;71.92;29.72;;;;;;;-1.87;87.66;98918.27;1667264;85;21192;-71
2021/12/05 13:15:44;;;;;;;60.25;26.42;;;;;;;-1.92;87.60;98919.55;1663008;85;21579;-72
2021/12/05 13:18:18;;;;;;;58.05;25.17;;;;;;;-1.99;87.69;98919.72;1659373;84;21028;-69
2021/12/05 13:20:57;;;;;;;54.00;25.50;;;;;;;-2.02;87.71;98927.76;1653793;85;21574;-70
2021/12/05 13:23:36;;;;;;;52.80;23.42;;;;;;;-2.05;87.91;98929.60;1651103;85;21011;-74
2021/12/05 13:26:39;;;;;;;57.60;25.57;;;;;;;-2.10;87.36;98936.26;1659820;85;21147;-73
2021/12/05 13:29:28;;;;;;;50.90;21.15;;;;;;;-2.12;87.22;98931.66;1658900;85;21004;-75
2021/12/05 13:32:17;;;;;;;52.23;23.32;;;;;;;-2.17;87.21;98935.63;1657254;85;20992;-71
2021/12/05 13:34:54;;;;;;;47.38;21.85;;;;;;;-2.24;87.43;98942.23;1650276;85;21012;-72
2021/12/05 13:37:32;;;;;;;52.48;24.87;;;;;;;-2.34;87.53;98945.09;1662237;85;21539;-74
2021/12/05 13:40:20;;;;;;;54.38;25.00;;;;;;;-2.41;88.25;98946.31;1664588;84;21127;-76
2021/12/05 13:42:53;;;;;;;84.75;38.95;;;;;;;-2.47;88.82;98946.77;1657954;83;21007;-73
2021/12/05 13:45:32;;;;;;;123.37;51.93;;;;;;;-2.50;89.41;98952.63;1681095;83;20958;-73
2021/12/05 13:48:08;;;;;;;99.13;43.17;;;;;;;-2.52;90.08;98952.59;1680168;83;20909;-74
2021/12/05 13:50:52;;;;;;;56.48;24.47;;;;;;;-2.55;90.45;98949.86;1700956;83;21005;-74
2021/12/05 13:53:22;;;;;;;;;;;;;;;-2.57;90.85;98945.27;1695129;84;21152;-75
2021/12/05 13:56:01;;;;;;;115.97;44.15;;;;;;;-2.62;91.08;98951.90;1673639;84;20148;-72
2021/12/05 13:58:41;;;;;;;57.75;27.82;;;;;;;-2.63;92.04;98959.67;1677074;84;20946;-72
2021/12/05 14:01:28;;;;;;;61.40;24.67;;;;;;;-2.66;91.92;98954.27;1635959;86;22168;-73
2021/12/05 14:04:23;;;;;;;58.33;25.50;;;;;;;-2.69;92.50;98956.09;1661120;84;20998;-73
2021/12/05 14:07:05;;;;;;;71.90;31.05;;;;;;;-2.74;92.72;98963.25;1650694;85;21126;-75
2021/12/05 14:09:43;;;;;;;56.65;24.27;;;;;;;-2.78;93.04;98970.17;1671364;85;20953;-75
2021/12/05 14:12:24;;;;;;;52.62;24.90;;;;;;;-2.77;93.43;98973.95;1664583;84;20965;-74
2021/12/05 14:14:56;;;;;;;60.08;28.02;;;;;;;-2.77;93.56;98982.02;1633083;85;21104;-72
2021/12/05 14:17:27;;;;;;;55.83;24.20;;;;;;;-2.75;93.70;98982.59;1631590;87;21080;-76
2021/12/05 14:20:01;;;;;;;60.75;25.95;;;;;;;-2.73;93.93;98988.53;1635757;86;21609;-71
2021/12/05 14:22:30;;;;;;;62.62;28.15;;;;;;;-2.71;94.48;98990.45;1645508;85;20902;-75
2021/12/05 14:25:04;;;;;;;57.93;24.57;;;;;;;-2.68;94.35;98993.99;1638970;86;20962;-72
2021/12/05 14:27:42;;;;;;;56.83;27.05;;;;;;;-2.69;94.37;98993.70;1632317;86;21583;-75
2021/12/05 14:30:13;;;;;;;52.53;23.32;;;;;;;-2.69;94.29;99000.95;1634412;85;21556;-73
2021/12/05 14:32:42;;;;;;;59.33;26.77;;;;;;;-2.67;94.61;99001.53;1664039;85;21187;-72
2021/12/05 14:35:23;;;;;;;51.25;23.40;;;;;;;-2.69;94.36;99004.45;1652386;86;21584;-76
2021/12/05 14:37:51;;;;;;;60.43;28.38;;;;;;;-2.68;94.50;99015.48;1667212;85;21493;-75
2021/12/05 14:40:30;;;;;;;57.38;23.83;;;;;;;-2.65;94.53;99011.50;1651443;86;21027;-71
2021/12/05 14:42:59;;;;;;;53.00;22.77;;;;;;;-2.60;94.89;99008.91;1639392;86;21085;-73
2021/12/05 14:45:28;;;;;;;56.65;23.92;;;;;;;-2.60;94.17;99013.46;1663686;85;21196;-71
2021/12/05 14:47:58;;;;;;;54.70;25.12;;;;;;;-2.62;94.03;99019.08;1669675;85;20978;-74
2021/12/05 14:50:30;;;;;;;49.83;23.75;;;;;;;-2.61;93.75;99015.34;1666848;85;20954;-71
2021/12/05 14:53:02;;;;;;;49.88;23.32;;;;;;;-2.66;93.30;99022.78;1665430;85;21009;-71
2021/12/05 14:55:31;;;;;;;49.20;21.80;;;;;;;-2.71;93.18;99031.28;1643882;85;21034;-71
2021/12/05 14:58:12;;;;;;;50.95;22.60;;;;;;;-2.74;93.33;99031.23;1663094;84;21159;-73
2021/12/05 15:00:44;;;;;;;50.90;22.80;;;;;;;-2.76;93.36;99027.16;1664341;84;21588;-71
2021/12/05 15:03:18;;;;;;;47.93;21.55;;;;;;;-2.78;93.37;99030.62;1675245;85;20934;-70
2021/12/05 15:05:54;;;;;;;43.55;19.70;;;;;;;-2.81;93.52;99025.73;1639509;86;20931;-74
2021/12/05 15:08:29;;;;;;;46.37;21.27;;;;;;;-2.83;93.70;99021.94;1649244;86;21062;-73
2021/12/05 15:11:01;;;;;;;52.55;21.07;;;;;;;-2.82;93.88;99024.91;1625933;85;22262;-74
2021/12/05 15:13:29;;;;;;;44.63;21.35;;;;;;;-2.83;93.82;99016.56;1645251;86;21536;-73
2021/12/05 15:16:02;;;;;;;45.88;21.65;;;;;;;-2.84;93.93;99012.78;1633017;86;21057;-72
2021/12/05 15:18:34;;;;;;;48.25;22.35;;;;;;;-2.85;94.17;99005.25;1621943;86;20999;-71
2021/12/05 15:21:03;;;;;;;49.63;22.42;;;;;;;-2.84;94.56;99004.19;1609025;87;21572;-70
2021/12/05 15:23:36;;;;;;;45.08;22.22;;;;;;;-2.87;94.44;98995.27;1667658;84;21603;-69
2021/12/05 15:26:07;;;;;;;44.25;20.10;;;;;;;-2.88;94.60;98989.61;1669177;85;21015;-70
2021/12/05 15:28:40;;;;;;;48.90;22.58;;;;;;;-2.91;94.81;98987.44;1643368;85;20880;-69
2021/12/05 15:31:07;;;;;;;44.00;20.62;;;;;;;-2.93;94.88;98984.18;1645340;86;20947;-69
2021/12/05 15:33:40;;;;;;;49.23;21.45;;;;;;;-2.95;95.00;98986.82;1623319;87;21511;-69
2021/12/05 15:36:08;;;;;;;50.12;24.72;;;;;;;-2.98;95.16;98986.77;1651316;86;21239;-69
2021/12/05 15:38:35;;;;;;;58.45;26.17;;;;;;;-2.97;95.31;98984.38;1667575;84;20953;-69
2021/12/05 15:41:06;;;;;;;76.40;29.32;;;;;;;-2.95;95.98;98974.73;1662720;85;21031;-68
2021/12/05 15:43:36;;;;;;;78.37;31.82;;;;;;;-2.92;95.92;98966.20;1668512;85;21541;-68
2021/12/05 15:46:04;;;;;;;51.85;22.77;;;;;;;-2.91;95.69;98959.77;1667352;85;20967;-69
2021/12/05 15:48:38;;;;;;;49.77;23.10;;;;;;;-2.92;95.41;98959.48;1661959;85;21141;-68
2021/12/05 15:51:10;;;;;;;45.25;20.37;;;;;;;-2.95;95.23;98962.65;1667487;85;21009;-69
2021/12/05 15:53:41;;;;;;;44.63;20.57;;;;;;;-2.99;95.27;98958.29;1653256;85;20949;-77
2021/12/05 15:56:13;;;;;;;40.98;18.98;;;;;;;-3.02;95.52;98962.27;1665829;85;21457;-76
2021/12/05 15:58:51;;;;;;;43.90;20.40;;;;;;;-3.01;95.84;98978.67;1648755;85;20933;-75
2021/12/05 16:01:25;;;;;;;40.78;18.75;;;;;;;-3.01;95.47;98989.94;1652122;85;21140;-69
2021/12/05 16:03:55;;;;;;;44.05;19.07;;;;;;;-3.07;95.10;99010.52;1668035;84;21079;-71
2021/12/05 16:06:36;;;;;;;39.70;19.52;;;;;;;-3.10;95.26;99011.52;1651163;85;21045;-71
2021/12/05 16:09:19;;;;;;;40.90;19.55;;;;;;;-3.15;95.42;99016.80;1653638;84;21008;-81
2021/12/05 16:11:49;;;;;;;41.75;19.62;;;;;;;-3.19;95.68;99011.09;1654663;85;21116;-71
2021/12/05 16:14:30;;;;;;;41.77;19.17;;;;;;;-3.21;95.98;99013.20;1603429;87;21164;-77
2021/12/05 16:16:58;;;;;;;39.00;18.50;;;;;;;-3.23;96.37;99015.30;1658723;85;20956;-76
2021/12/05 16:19:24;;;;;;;38.60;17.55;;;;;;;-3.21;97.29;99017.75;1654209;85;21017;-74
2021/12/05 16:21:56;;;;;;;39.13;18.07;;;;;;;-3.19;97.40;99015.11;1654299;85;21002;-76
2021/12/05 16:24:28;;;;;;;39.30;18.42;;;;;;;-3.17;97.30;99011.66;1649966;84;21872;-75
2021/12/05 16:26:55;;;;;;;53.60;21.23;;;;;;;-3.17;97.12;99014.88;1660637;85;21214;-73
2021/12/05 16:29:30;;;;;;;45.65;20.17;;;;;;;-3.20;97.43;99015.36;1671635;84;21108;-76
2021/12/05 16:32:01;;;;;;;44.40;19.62;;;;;;;-3.22;97.64;99013.44;1646525;85;21548;-74
2021/12/05 16:34:36;;;;;;;48.08;20.80;;;;;;;-3.25;97.90;99023.31;1655583;85;21029;-76
2021/12/05 16:37:08;;;;;;;46.15;19.57;;;;;;;-3.29;98.06;99022.97;1657433;85;21189;-74
2021/12/05 16:39:48;;;;;;;41.80;19.75;;;;;;;-3.30;98.33;99024.55;1653104;85;21169;-76
2021/12/05 16:42:22;;;;;;;47.95;19.80;;;;;;;-3.32;98.39;99024.27;1666935;84;20949;-76
2021/12/05 16:45:00;;;;;;;47.17;21.73;;;;;;;-3.33;98.59;99023.16;1671782;84;21001;-77
2021/12/05 16:47:38;;;;;;;44.63;19.23;;;;;;;-3.34;98.63;99026.89;1663882;85;21570;-77
2021/12/05 16:50:00;;;;;;;53.42;22.30;;;;;;;-3.38;98.85;99025.21;1658127;85;21033;-76
2021/12/05 16:52:41;;;;;;;50.80;21.97;;;;;;;-3.37;99.14;99030.88;1678112;84;20933;-75
2021/12/05 16:55:22;;;;;;;48.75;22.32;;;;;;;-3.34;99.47;99018.31;1657921;84;21023;-74